sensor_id;sensor_type;location;lat;lon;timestamp;P1;durP1;ratioP1;P2;durP2;ratioP2
48588;SDS011;34369;51.174;6.738;2022-07-25T00:01:25;18.48;;;16.65;;
48588;SDS011;34369;51.174;6.738;2022-07-25T00:03:57;17.95;;;16.25;;
48588;SDS011;34369;51.174;6.738;2022-07-25T00:06:30;18.63;;;16.90;;
48588;SDS011;34369;51.174;6.738;2022-07-25T00:09:02;18.08;;;16.48;;
48588;SDS011;34369;51.174;6.738;2022-07-25T00:11:34;17.83;;;16.13;;
48588;SDS011;34369;51.174;6.738;2022-07-25T00:14:06;18.38;;;16.67;;
48588;SDS011;34369;51.174;6.738;2022-07-25T00:16:38;18.30;;;16.60;;
48588;SDS011;34369;51.174;6.738;2022-07-25T00:19:10;18.55;;;16.63;;
48588;SDS011;34369;51.174;6.738;2022-07-25T00:21:44;18.25;;;16.55;;
48588;SDS011;34369;51.174;6.738;2022-07-25T00:24:15;18.05;;;16.33;;
48588;SDS011;34369;51.174;6.738;2022-07-25T00:26:47;18.90;;;16.90;;
48588;SDS011;34369;51.174;6.738;2022-07-25T00:29:19;17.80;;;16.20;;
48588;SDS011;34369;51.174;6.738;2022-07-25T00:31:51;18.08;;;16.20;;
48588;SDS011;34369;51.174;6.738;2022-07-25T00:34:24;17.92;;;16.30;;
48588;SDS011;34369;51.174;6.738;2022-07-25T00:36:57;18.05;;;16.35;;
48588;SDS011;34369;51.174;6.738;2022-07-25T00:39:29;18.42;;;16.63;;
48588;SDS011;34369;51.174;6.738;2022-07-25T00:42:01;17.77;;;16.02;;
48588;SDS011;34369;51.174;6.738;2022-07-25T00:44:33;18.30;;;16.60;;
48588;SDS011;34369;51.174;6.738;2022-07-25T00:47:05;18.48;;;16.73;;
48588;SDS011;34369;51.174;6.738;2022-07-25T00:49:37;18.55;;;16.95;;
48588;SDS011;34369;51.174;6.738;2022-07-25T00:52:10;18.42;;;16.67;;
48588;SDS011;34369;51.174;6.738;2022-07-25T00:54:42;19.67;;;17.67;;
48588;SDS011;34369;51.174;6.738;2022-07-25T00:57:14;18.88;;;16.90;;
48588;SDS011;34369;51.174;6.738;2022-07-25T00:59:46;17.98;;;16.30;;
48588;SDS011;34369;51.174;6.738;2022-07-25T01:02:19;18.00;;;16.40;;
48588;SDS011;34369;51.174;6.738;2022-07-25T01:04:51;17.98;;;16.38;;
48588;SDS011;34369;51.174;6.738;2022-07-25T01:07:25;18.15;;;16.35;;
48588;SDS011;34369;51.174;6.738;2022-07-25T01:09:58;18.02;;;16.20;;
48588;SDS011;34369;51.174;6.738;2022-07-25T01:12:30;17.58;;;15.95;;
48588;SDS011;34369;51.174;6.738;2022-07-25T01:15:02;18.63;;;16.73;;
48588;SDS011;34369;51.174;6.738;2022-07-25T01:17:35;18.52;;;16.50;;
48588;SDS011;34369;51.174;6.738;2022-07-25T01:20:12;17.52;;;15.93;;
48588;SDS011;34369;51.174;6.738;2022-07-25T01:22:45;18.23;;;16.52;;
48588;SDS011;34369;51.174;6.738;2022-07-25T01:25:18;18.02;;;16.33;;
48588;SDS011;34369;51.174;6.738;2022-07-25T01:27:50;18.05;;;16.40;;
48588;SDS011;34369;51.174;6.738;2022-07-25T01:30:24;18.33;;;16.42;;
48588;SDS011;34369;51.174;6.738;2022-07-25T01:32:56;18.52;;;15.90;;
48588;SDS011;34369;51.174;6.738;2022-07-25T01:35:29;17.75;;;16.15;;
48588;SDS011;34369;51.174;6.738;2022-07-25T01:38:01;18.17;;;16.40;;
48588;SDS011;34369;51.174;6.738;2022-07-25T01:40:33;18.20;;;16.23;;
48588;SDS011;34369;51.174;6.738;2022-07-25T01:43:05;17.85;;;16.15;;
48588;SDS011;34369;51.174;6.738;2022-07-25T01:45:38;17.83;;;16.08;;
48588;SDS011;34369;51.174;6.738;2022-07-25T01:48:09;17.65;;;15.93;;
48588;SDS011;34369;51.174;6.738;2022-07-25T01:50:43;17.77;;;16.10;;
48588;SDS011;34369;51.174;6.738;2022-07-25T01:53:15;17.75;;;16.05;;
48588;SDS011;34369;51.174;6.738;2022-07-25T01:55:48;18.58;;;15.95;;
48588;SDS011;34369;51.174;6.738;2022-07-25T01:58:20;18.52;;;16.02;;
48588;SDS011;34369;51.174;6.738;2022-07-25T02:00:52;18.17;;;16.38;;
48588;SDS011;34369;51.174;6.738;2022-07-25T02:03:25;18.38;;;16.67;;
48588;SDS011;34369;51.174;6.738;2022-07-25T02:06:02;18.00;;;16.20;;
48588;SDS011;34369;51.174;6.738;2022-07-25T02:08:36;17.98;;;16.15;;
48588;SDS011;34369;51.174;6.738;2022-07-25T02:11:08;18.10;;;16.30;;
48588;SDS011;34369;51.174;6.738;2022-07-25T02:13:40;18.17;;;16.48;;
48588;SDS011;34369;51.174;6.738;2022-07-25T02:16:13;18.20;;;16.42;;
48588;SDS011;34369;51.174;6.738;2022-07-25T02:18:45;17.73;;;16.02;;
48588;SDS011;34369;51.174;6.738;2022-07-25T02:21:20;17.80;;;16.20;;
48588;SDS011;34369;51.174;6.738;2022-07-25T02:23:53;18.25;;;16.60;;
48588;SDS011;34369;51.174;6.738;2022-07-25T02:26:25;17.63;;;16.00;;
48588;SDS011;34369;51.174;6.738;2022-07-25T02:28:57;19.35;;;15.80;;
48588;SDS011;34369;51.174;6.738;2022-07-25T02:31:29;18.00;;;16.30;;
48588;SDS011;34369;51.174;6.738;2022-07-25T02:34:01;17.75;;;15.65;;
48588;SDS011;34369;51.174;6.738;2022-07-25T02:36:34;17.77;;;16.17;;
48588;SDS011;34369;51.174;6.738;2022-07-25T02:39:06;18.10;;;16.40;;
48588;SDS011;34369;51.174;6.738;2022-07-25T02:41:38;18.90;;;17.02;;
48588;SDS011;34369;51.174;6.738;2022-07-25T02:44:10;18.20;;;16.50;;
48588;SDS011;34369;51.174;6.738;2022-07-25T02:46:42;17.70;;;15.98;;
48588;SDS011;34369;51.174;6.738;2022-07-25T02:49:14;17.60;;;15.90;;
48588;SDS011;34369;51.174;6.738;2022-07-25T02:51:47;18.23;;;16.33;;
48588;SDS011;34369;51.174;6.738;2022-07-25T02:54:20;17.67;;;16.08;;
48588;SDS011;34369;51.174;6.738;2022-07-25T02:56:52;20.08;;;16.58;;
48588;SDS011;34369;51.174;6.738;2022-07-25T02:59:24;18.58;;;16.58;;
48588;SDS011;34369;51.174;6.738;2022-07-25T03:01:56;18.80;;;16.88;;
48588;SDS011;34369;51.174;6.738;2022-07-25T03:04:28;17.88;;;16.17;;
48588;SDS011;34369;51.174;6.738;2022-07-25T03:07:02;18.60;;;16.75;;
48588;SDS011;34369;51.174;6.738;2022-07-25T03:09:34;18.38;;;16.60;;
48588;SDS011;34369;51.174;6.738;2022-07-25T03:12:06;18.05;;;16.35;;
48588;SDS011;34369;51.174;6.738;2022-07-25T03:14:38;17.80;;;16.15;;
48588;SDS011;34369;51.174;6.738;2022-07-25T03:17:10;18.70;;;17.00;;
48588;SDS011;34369;51.174;6.738;2022-07-25T03:19:42;18.60;;;16.60;;
48588;SDS011;34369;51.174;6.738;2022-07-25T03:22:16;18.55;;;16.77;;
48588;SDS011;34369;51.174;6.738;2022-07-25T03:24:48;19.15;;;17.35;;
48588;SDS011;34369;51.174;6.738;2022-07-25T03:27:21;18.50;;;16.70;;
48588;SDS011;34369;51.174;6.738;2022-07-25T03:29:53;18.80;;;17.00;;
48588;SDS011;34369;51.174;6.738;2022-07-25T03:32:26;18.30;;;16.55;;
48588;SDS011;34369;51.174;6.738;2022-07-25T03:34:58;18.35;;;16.63;;
48588;SDS011;34369;51.174;6.738;2022-07-25T03:37:33;18.30;;;16.60;;
48588;SDS011;34369;51.174;6.738;2022-07-25T03:40:06;19.20;;;17.23;;
48588;SDS011;34369;51.174;6.738;2022-07-25T03:42:40;18.65;;;16.75;;
48588;SDS011;34369;51.174;6.738;2022-07-25T03:45:13;18.73;;;16.98;;
48588;SDS011;34369;51.174;6.738;2022-07-25T03:47:47;18.13;;;16.42;;
48588;SDS011;34369;51.174;6.738;2022-07-25T03:50:19;18.40;;;16.67;;
48588;SDS011;34369;51.174;6.738;2022-07-25T03:52:54;18.15;;;16.33;;
48588;SDS011;34369;51.174;6.738;2022-07-25T03:55:27;18.35;;;16.58;;
48588;SDS011;34369;51.174;6.738;2022-07-25T03:58:01;18.08;;;16.48;;
48588;SDS011;34369;51.174;6.738;2022-07-25T04:00:35;17.95;;;16.35;;
48588;SDS011;34369;51.174;6.738;2022-07-25T04:03:08;18.30;;;16.60;;
48588;SDS011;34369;51.174;6.738;2022-07-25T04:05:41;18.35;;;16.55;;
48588;SDS011;34369;51.174;6.738;2022-07-25T04:08:16;18.40;;;16.70;;
48588;SDS011;34369;51.174;6.738;2022-07-25T04:10:49;18.02;;;16.23;;
48588;SDS011;34369;51.174;6.738;2022-07-25T04:13:22;18.23;;;16.52;;
48588;SDS011;34369;51.174;6.738;2022-07-25T04:15:55;18.40;;;16.50;;
48588;SDS011;34369;51.174;6.738;2022-07-25T04:18:28;18.00;;;16.20;;
48588;SDS011;34369;51.174;6.738;2022-07-25T04:21:02;19.17;;;17.20;;
48588;SDS011;34369;51.174;6.738;2022-07-25T04:23:36;18.73;;;16.92;;
48588;SDS011;34369;51.174;6.738;2022-07-25T04:26:09;18.73;;;16.92;;
48588;SDS011;34369;51.174;6.738;2022-07-25T04:28:43;18.40;;;16.60;;
48588;SDS011;34369;51.174;6.738;2022-07-25T04:31:16;18.38;;;16.52;;
48588;SDS011;34369;51.174;6.738;2022-07-25T04:33:49;17.65;;;15.95;;
48588;SDS011;34369;51.174;6.738;2022-07-25T04:36:22;17.33;;;15.63;;
48588;SDS011;34369;51.174;6.738;2022-07-25T04:38:57;18.38;;;16.60;;
48588;SDS011;34369;51.174;6.738;2022-07-25T04:41:30;17.60;;;15.90;;
48588;SDS011;34369;51.174;6.738;2022-07-25T04:44:03;18.25;;;16.55;;
48588;SDS011;34369;51.174;6.738;2022-07-25T04:46:37;18.48;;;16.63;;
48588;SDS011;34369;51.174;6.738;2022-07-25T04:49:12;17.83;;;16.13;;
48588;SDS011;34369;51.174;6.738;2022-07-25T04:51:45;17.88;;;16.27;;
48588;SDS011;34369;51.174;6.738;2022-07-25T04:54:19;18.35;;;16.65;;
48588;SDS011;34369;51.174;6.738;2022-07-25T04:56:51;18.52;;;16.73;;
48588;SDS011;34369;51.174;6.738;2022-07-25T04:59:24;18.00;;;16.35;;
48588;SDS011;34369;51.174;6.738;2022-07-25T05:01:57;17.77;;;16.10;;
48588;SDS011;34369;51.174;6.738;2022-07-25T05:04:29;18.42;;;16.70;;
48588;SDS011;34369;51.174;6.738;2022-07-25T05:07:02;17.98;;;16.17;;
48588;SDS011;34369;51.174;6.738;2022-07-25T05:09:36;18.10;;;16.40;;
48588;SDS011;34369;51.174;6.738;2022-07-25T05:12:09;17.85;;;16.05;;
48588;SDS011;34369;51.174;6.738;2022-07-25T05:14:42;18.25;;;16.52;;
48588;SDS011;34369;51.174;6.738;2022-07-25T05:17:15;18.05;;;16.25;;
48588;SDS011;34369;51.174;6.738;2022-07-25T05:19:48;18.77;;;16.83;;
48588;SDS011;34369;51.174;6.738;2022-07-25T05:22:21;18.17;;;16.48;;
48588;SDS011;34369;51.174;6.738;2022-07-25T05:24:56;17.73;;;16.02;;
48588;SDS011;34369;51.174;6.738;2022-07-25T05:27:31;17.92;;;16.23;;
48588;SDS011;34369;51.174;6.738;2022-07-25T05:30:05;17.65;;;16.05;;
48588;SDS011;34369;51.174;6.738;2022-07-25T05:32:40;18.50;;;16.80;;
48588;SDS011;34369;51.174;6.738;2022-07-25T05:35:12;17.90;;;16.10;;
48588;SDS011;34369;51.174;6.738;2022-07-25T05:37:46;17.33;;;15.63;;
48588;SDS011;34369;51.174;6.738;2022-07-25T05:40:21;18.08;;;16.30;;
48588;SDS011;34369;51.174;6.738;2022-07-25T05:42:55;18.38;;;16.40;;
48588;SDS011;34369;51.174;6.738;2022-07-25T05:45:28;17.27;;;15.50;;
48588;SDS011;34369;51.174;6.738;2022-07-25T05:48:02;18.08;;;16.38;;
48588;SDS011;34369;51.174;6.738;2022-07-25T05:50:36;18.35;;;16.58;;
48588;SDS011;34369;51.174;6.738;2022-07-25T05:53:09;17.33;;;15.63;;
48588;SDS011;34369;51.174;6.738;2022-07-25T05:55:43;17.92;;;16.13;;
48588;SDS011;34369;51.174;6.738;2022-07-25T05:58:17;17.85;;;15.95;;
48588;SDS011;34369;51.174;6.738;2022-07-25T06:00:50;17.75;;;15.95;;
48588;SDS011;34369;51.174;6.738;2022-07-25T06:03:24;17.40;;;15.60;;
48588;SDS011;34369;51.174;6.738;2022-07-25T06:05:57;17.45;;;15.75;;
48588;SDS011;34369;51.174;6.738;2022-07-25T06:08:30;18.30;;;16.33;;
48588;SDS011;34369;51.174;6.738;2022-07-25T06:11:05;17.60;;;15.80;;
48588;SDS011;34369;51.174;6.738;2022-07-25T06:13:39;16.98;;;15.35;;
48588;SDS011;34369;51.174;6.738;2022-07-25T06:16:13;17.15;;;15.52;;
48588;SDS011;34369;51.174;6.738;2022-07-25T06:18:46;17.20;;;15.40;;
48588;SDS011;34369;51.174;6.738;2022-07-25T06:21:19;17.52;;;15.85;;
48588;SDS011;34369;51.174;6.738;2022-07-25T06:23:52;17.52;;;15.80;;
48588;SDS011;34369;51.174;6.738;2022-07-25T06:26:29;17.20;;;15.45;;
48588;SDS011;34369;51.174;6.738;2022-07-25T06:29:04;16.52;;;14.70;;
48588;SDS011;34369;51.174;6.738;2022-07-25T06:31:36;16.92;;;15.18;;
48588;SDS011;34369;51.174;6.738;2022-07-25T06:34:09;16.70;;;14.90;;
48588;SDS011;34369;51.174;6.738;2022-07-25T06:36:41;16.58;;;14.75;;
48588;SDS011;34369;51.174;6.738;2022-07-25T06:39:14;15.98;;;14.27;;
48588;SDS011;34369;51.174;6.738;2022-07-25T06:41:48;16.27;;;14.50;;
48588;SDS011;34369;51.174;6.738;2022-07-25T06:44:20;16.65;;;15.05;;
48588;SDS011;34369;51.174;6.738;2022-07-25T06:46:55;15.90;;;14.35;;
48588;SDS011;34369;51.174;6.738;2022-07-25T06:49:27;16.58;;;14.80;;
48588;SDS011;34369;51.174;6.738;2022-07-25T06:52:00;16.98;;;15.35;;
48588;SDS011;34369;51.174;6.738;2022-07-25T06:54:33;15.82;;;14.23;;
48588;SDS011;34369;51.174;6.738;2022-07-25T06:57:07;16.50;;;14.80;;
48588;SDS011;34369;51.174;6.738;2022-07-25T06:59:40;16.25;;;14.65;;
48588;SDS011;34369;51.174;6.738;2022-07-25T07:02:13;15.82;;;14.13;;
48588;SDS011;34369;51.174;6.738;2022-07-25T07:04:45;16.25;;;14.68;;
48588;SDS011;34369;51.174;6.738;2022-07-25T07:07:18;17.77;;;14.95;;
48588;SDS011;34369;51.174;6.738;2022-07-25T07:09:51;15.93;;;14.15;;
48588;SDS011;34369;51.174;6.738;2022-07-25T07:12:24;17.00;;;15.20;;
48588;SDS011;34369;51.174;6.738;2022-07-25T07:14:56;17.38;;;14.60;;
48588;SDS011;34369;51.174;6.738;2022-07-25T07:17:28;16.85;;;14.05;;
48588;SDS011;34369;51.174;6.738;2022-07-25T07:19:59;15.73;;;14.23;;
48588;SDS011;34369;51.174;6.738;2022-07-25T07:22:41;15.40;;;13.80;;
48588;SDS011;34369;51.174;6.738;2022-07-25T07:25:15;15.85;;;14.15;;
48588;SDS011;34369;51.174;6.738;2022-07-25T07:27:51;15.37;;;13.10;;
48588;SDS011;34369;51.174;6.738;2022-07-25T07:30:23;15.95;;;14.10;;
48588;SDS011;34369;51.174;6.738;2022-07-25T07:32:55;14.85;;;13.35;;
48588;SDS011;34369;51.174;6.738;2022-07-25T07:35:27;14.45;;;13.05;;
48588;SDS011;34369;51.174;6.738;2022-07-25T07:37:59;18.38;;;15.10;;
48588;SDS011;34369;51.174;6.738;2022-07-25T07:40:31;15.40;;;13.70;;
48588;SDS011;34369;51.174;6.738;2022-07-25T07:43:04;20.60;;;15.02;;
48588;SDS011;34369;51.174;6.738;2022-07-25T07:45:36;15.68;;;13.95;;
48588;SDS011;34369;51.174;6.738;2022-07-25T07:48:08;14.25;;;12.75;;
48588;SDS011;34369;51.174;6.738;2022-07-25T07:50:41;14.93;;;13.25;;
48588;SDS011;34369;51.174;6.738;2022-07-25T07:53:13;15.13;;;13.20;;
48588;SDS011;34369;51.174;6.738;2022-07-25T07:55:45;14.70;;;12.88;;
48588;SDS011;34369;51.174;6.738;2022-07-25T07:58:19;14.65;;;13.13;;
48588;SDS011;34369;51.174;6.738;2022-07-25T08:00:51;16.38;;;13.10;;
48588;SDS011;34369;51.174;6.738;2022-07-25T08:03:23;15.48;;;13.85;;
48588;SDS011;34369;51.174;6.738;2022-07-25T08:05:55;14.35;;;12.95;;
48588;SDS011;34369;51.174;6.738;2022-07-25T08:08:27;16.17;;;14.48;;
48588;SDS011;34369;51.174;6.738;2022-07-25T08:10:59;14.48;;;13.00;;
48588;SDS011;34369;51.174;6.738;2022-07-25T08:13:32;16.50;;;13.65;;
48588;SDS011;34369;51.174;6.738;2022-07-25T08:18:40;20.10;;;13.55;;
48588;SDS011;34369;51.174;6.738;2022-07-25T08:21:12;15.77;;;14.18;;
48588;SDS011;34369;51.174;6.738;2022-07-25T08:23:44;14.63;;;13.13;;
48588;SDS011;34369;51.174;6.738;2022-07-25T08:26:17;14.90;;;13.35;;
48588;SDS011;34369;51.174;6.738;2022-07-25T08:28:50;17.13;;;13.85;;
48588;SDS011;34369;51.174;6.738;2022-07-25T08:31:22;15.43;;;13.82;;
48588;SDS011;34369;51.174;6.738;2022-07-25T08:33:53;14.70;;;13.20;;
48588;SDS011;34369;51.174;6.738;2022-07-25T08:36:26;20.90;;;16.52;;
48588;SDS011;34369;51.174;6.738;2022-07-25T08:38:57;17.38;;;14.93;;
48588;SDS011;34369;51.174;6.738;2022-07-25T08:41:29;16.75;;;14.13;;
48588;SDS011;34369;51.174;6.738;2022-07-25T08:44:05;14.98;;;13.40;;
48588;SDS011;34369;51.174;6.738;2022-07-25T08:46:39;14.63;;;13.05;;
48588;SDS011;34369;51.174;6.738;2022-07-25T08:49:11;16.33;;;13.50;;
48588;SDS011;34369;51.174;6.738;2022-07-25T08:51:43;14.73;;;12.85;;
48588;SDS011;34369;51.174;6.738;2022-07-25T08:54:16;17.80;;;13.68;;
48588;SDS011;34369;51.174;6.738;2022-07-25T08:56:49;16.85;;;13.48;;
48588;SDS011;34369;51.174;6.738;2022-07-25T08:59:22;15.63;;;14.07;;
48588;SDS011;34369;51.174;6.738;2022-07-25T09:01:54;17.20;;;13.35;;
48588;SDS011;34369;51.174;6.738;2022-07-25T09:04:27;13.90;;;12.50;;
48588;SDS011;34369;51.174;6.738;2022-07-25T09:07:00;14.13;;;12.73;;
48588;SDS011;34369;51.174;6.738;2022-07-25T09:09:35;14.48;;;12.98;;
48588;SDS011;34369;51.174;6.738;2022-07-25T09:12:09;16.40;;;12.52;;
48588;SDS011;34369;51.174;6.738;2022-07-25T09:14:42;13.77;;;12.25;;
48588;SDS011;34369;51.174;6.738;2022-07-25T09:17:14;13.50;;;11.95;;
48588;SDS011;34369;51.174;6.738;2022-07-25T09:19:52;14.90;;;12.85;;
48588;SDS011;34369;51.174;6.738;2022-07-25T09:22:26;14.40;;;12.90;;
48588;SDS011;34369;51.174;6.738;2022-07-25T09:24:59;14.35;;;12.70;;
48588;SDS011;34369;51.174;6.738;2022-07-25T09:27:31;17.08;;;12.88;;
48588;SDS011;34369;51.174;6.738;2022-07-25T09:30:12;15.13;;;13.20;;
48588;SDS011;34369;51.174;6.738;2022-07-25T09:32:45;14.20;;;12.70;;
48588;SDS011;34369;51.174;6.738;2022-07-25T09:35:28;16.83;;;12.05;;
48588;SDS011;34369;51.174;6.738;2022-07-25T09:38:07;16.55;;;13.48;;
48588;SDS011;34369;51.174;6.738;2022-07-25T09:40:52;16.02;;;13.20;;
48588;SDS011;34369;51.174;6.738;2022-07-25T09:43:34;14.30;;;12.90;;
48588;SDS011;34369;51.174;6.738;2022-07-25T09:46:09;18.23;;;12.77;;
48588;SDS011;34369;51.174;6.738;2022-07-25T09:48:43;15.00;;;13.48;;
48588;SDS011;34369;51.174;6.738;2022-07-25T09:51:15;15.13;;;13.50;;
48588;SDS011;34369;51.174;6.738;2022-07-25T09:53:47;16.70;;;13.35;;
48588;SDS011;34369;51.174;6.738;2022-07-25T09:56:19;17.05;;;13.43;;
48588;SDS011;34369;51.174;6.738;2022-07-25T09:58:51;15.52;;;13.48;;
48588;SDS011;34369;51.174;6.738;2022-07-25T10:01:26;14.63;;;13.07;;
48588;SDS011;34369;51.174;6.738;2022-07-25T10:04:08;15.00;;;13.45;;
48588;SDS011;34369;51.174;6.738;2022-07-25T10:06:49;15.00;;;13.50;;
48588;SDS011;34369;51.174;6.738;2022-07-25T10:09:30;16.92;;;14.10;;
48588;SDS011;34369;51.174;6.738;2022-07-25T10:12:03;16.63;;;13.65;;
48588;SDS011;34369;51.174;6.738;2022-07-25T10:14:36;14.95;;;13.50;;
48588;SDS011;34369;51.174;6.738;2022-07-25T10:17:18;14.77;;;13.25;;
48588;SDS011;34369;51.174;6.738;2022-07-25T10:19:51;14.52;;;13.05;;
48588;SDS011;34369;51.174;6.738;2022-07-25T10:22:34;14.35;;;12.35;;
48588;SDS011;34369;51.174;6.738;2022-07-25T10:25:12;13.95;;;12.55;;
48588;SDS011;34369;51.174;6.738;2022-07-25T10:27:46;16.20;;;13.30;;
48588;SDS011;34369;51.174;6.738;2022-07-25T10:30:22;14.38;;;12.68;;
48588;SDS011;34369;51.174;6.738;2022-07-25T10:32:58;14.07;;;12.57;;
48588;SDS011;34369;51.174;6.738;2022-07-25T10:35:32;14.50;;;13.00;;
48588;SDS011;34369;51.174;6.738;2022-07-25T10:38:04;17.70;;;13.30;;
48588;SDS011;34369;51.174;6.738;2022-07-25T10:40:37;14.32;;;12.80;;
48588;SDS011;34369;51.174;6.738;2022-07-25T10:43:13;13.95;;;12.55;;
48588;SDS011;34369;51.174;6.738;2022-07-25T10:45:49;13.38;;;12.07;;
48588;SDS011;34369;51.174;6.738;2022-07-25T10:48:25;13.13;;;11.52;;
48588;SDS011;34369;51.174;6.738;2022-07-25T10:50:59;12.98;;;11.38;;
48588;SDS011;34369;51.174;6.738;2022-07-25T10:53:34;13.23;;;11.85;;
48588;SDS011;34369;51.174;6.738;2022-07-25T10:56:08;12.73;;;11.43;;
48588;SDS011;34369;51.174;6.738;2022-07-25T11:01:20;12.55;;;11.25;;
48588;SDS011;34369;51.174;6.738;2022-07-25T11:06:31;13.98;;;12.10;;
48588;SDS011;34369;51.174;6.738;2022-07-25T11:09:12;13.23;;;10.25;;
48588;SDS011;34369;51.174;6.738;2022-07-25T11:11:47;15.63;;;12.38;;
48588;SDS011;34369;51.174;6.738;2022-07-25T11:14:21;14.77;;;12.68;;
48588;SDS011;34369;51.174;6.738;2022-07-25T11:16:56;14.00;;;12.38;;
48588;SDS011;34369;51.174;6.738;2022-07-25T11:19:29;14.98;;;12.15;;
48588;SDS011;34369;51.174;6.738;2022-07-25T11:22:01;14.57;;;13.07;;
48588;SDS011;34369;51.174;6.738;2022-07-25T11:24:34;17.45;;;12.10;;
48588;SDS011;34369;51.174;6.738;2022-07-25T11:27:09;14.48;;;13.10;;
48588;SDS011;34369;51.174;6.738;2022-07-25T11:29:49;14.13;;;11.50;;
48588;SDS011;34369;51.174;6.738;2022-07-25T11:32:23;16.60;;;12.27;;
48588;SDS011;34369;51.174;6.738;2022-07-25T11:34:56;12.90;;;11.57;;
48588;SDS011;34369;51.174;6.738;2022-07-25T11:37:28;12.68;;;11.38;;
48588;SDS011;34369;51.174;6.738;2022-07-25T11:40:06;12.57;;;11.27;;
48588;SDS011;34369;51.174;6.738;2022-07-25T11:42:40;12.95;;;11.40;;
48588;SDS011;34369;51.174;6.738;2022-07-25T11:45:14;14.05;;;11.63;;
48588;SDS011;34369;51.174;6.738;2022-07-25T11:47:48;15.60;;;11.35;;
48588;SDS011;34369;51.174;6.738;2022-07-25T11:50:35;14.93;;;11.98;;
48588;SDS011;34369;51.174;6.738;2022-07-25T11:53:10;13.27;;;11.88;;
48588;SDS011;34369;51.174;6.738;2022-07-25T11:55:44;13.15;;;11.75;;
48588;SDS011;34369;51.174;6.738;2022-07-25T11:58:16;14.38;;;12.18;;
48588;SDS011;34369;51.174;6.738;2022-07-25T12:00:48;18.13;;;11.68;;
48588;SDS011;34369;51.174;6.738;2022-07-25T12:03:20;14.82;;;11.10;;
48588;SDS011;34369;51.174;6.738;2022-07-25T12:05:53;12.82;;;11.52;;
48588;SDS011;34369;51.174;6.738;2022-07-25T12:08:25;13.77;;;12.18;;
48588;SDS011;34369;51.174;6.738;2022-07-25T12:10:57;13.40;;;11.55;;
48588;SDS011;34369;51.174;6.738;2022-07-25T12:13:29;15.38;;;11.13;;
48588;SDS011;34369;51.174;6.738;2022-07-25T12:16:01;14.32;;;11.63;;
48588;SDS011;34369;51.174;6.738;2022-07-25T12:18:33;13.82;;;11.73;;
48588;SDS011;34369;51.174;6.738;2022-07-25T12:21:09;16.60;;;11.45;;
48588;SDS011;34369;51.174;6.738;2022-07-25T12:23:40;12.77;;;11.35;;
48588;SDS011;34369;51.174;6.738;2022-07-25T12:26:13;12.90;;;11.60;;
48588;SDS011;34369;51.174;6.738;2022-07-25T12:28:44;13.10;;;11.65;;
48588;SDS011;34369;51.174;6.738;2022-07-25T12:31:16;12.15;;;10.85;;
48588;SDS011;34369;51.174;6.738;2022-07-25T12:33:48;13.30;;;10.88;;
48588;SDS011;34369;51.174;6.738;2022-07-25T12:36:22;12.75;;;11.45;;
48588;SDS011;34369;51.174;6.738;2022-07-25T12:38:54;13.88;;;11.30;;
48588;SDS011;34369;51.174;6.738;2022-07-25T12:41:26;12.80;;;11.38;;
48588;SDS011;34369;51.174;6.738;2022-07-25T12:43:58;14.77;;;11.85;;
48588;SDS011;34369;51.174;6.738;2022-07-25T12:46:31;13.77;;;11.82;;
48588;SDS011;34369;51.174;6.738;2022-07-25T12:51:40;12.88;;;11.35;;
48588;SDS011;34369;51.174;6.738;2022-07-25T12:54:12;12.88;;;11.57;;
48588;SDS011;34369;51.174;6.738;2022-07-25T12:56:45;12.70;;;11.40;;
48588;SDS011;34369;51.174;6.738;2022-07-25T12:59:17;14.82;;;11.20;;
48588;SDS011;34369;51.174;6.738;2022-07-25T13:01:50;13.23;;;11.43;;
48588;SDS011;34369;51.174;6.738;2022-07-25T13:04:22;12.30;;;11.00;;
48588;SDS011;34369;51.174;6.738;2022-07-25T13:06:57;13.35;;;10.68;;
48588;SDS011;34369;51.174;6.738;2022-07-25T13:09:31;11.60;;;10.13;;
48588;SDS011;34369;51.174;6.738;2022-07-25T13:12:04;13.65;;;11.15;;
48588;SDS011;34369;51.174;6.738;2022-07-25T13:14:37;14.60;;;11.52;;
48588;SDS011;34369;51.174;6.738;2022-07-25T13:17:10;12.50;;;11.27;;
48588;SDS011;34369;51.174;6.738;2022-07-25T13:19:45;14.43;;;10.57;;
48588;SDS011;34369;51.174;6.738;2022-07-25T13:22:22;14.85;;;11.20;;
48588;SDS011;34369;51.174;6.738;2022-07-25T13:24:54;16.42;;;10.90;;
48588;SDS011;34369;51.174;6.738;2022-07-25T13:27:26;15.18;;;10.90;;
48588;SDS011;34369;51.174;6.738;2022-07-25T13:29:59;14.43;;;11.10;;
48588;SDS011;34369;51.174;6.738;2022-07-25T13:32:31;12.02;;;10.80;;
48588;SDS011;34369;51.174;6.738;2022-07-25T13:35:04;13.75;;;11.55;;
48588;SDS011;34369;51.174;6.738;2022-07-25T13:37:39;11.90;;;10.70;;
48588;SDS011;34369;51.174;6.738;2022-07-25T13:40:11;12.85;;;11.07;;
48588;SDS011;34369;51.174;6.738;2022-07-25T13:42:44;13.00;;;11.52;;
48588;SDS011;34369;51.174;6.738;2022-07-25T13:45:16;12.18;;;10.98;;
48588;SDS011;34369;51.174;6.738;2022-07-25T13:47:48;12.10;;;10.90;;
48588;SDS011;34369;51.174;6.738;2022-07-25T13:50:20;12.57;;;11.27;;
48588;SDS011;34369;51.174;6.738;2022-07-25T13:52:54;13.18;;;11.20;;
48588;SDS011;34369;51.174;6.738;2022-07-25T13:55:29;14.63;;;11.05;;
48588;SDS011;34369;51.174;6.738;2022-07-25T13:58:02;13.35;;;11.50;;
48588;SDS011;34369;51.174;6.738;2022-07-25T14:00:36;13.10;;;11.10;;
48588;SDS011;34369;51.174;6.738;2022-07-25T14:03:08;15.18;;;12.18;;
48588;SDS011;34369;51.174;6.738;2022-07-25T14:05:41;12.70;;;11.43;;
48588;SDS011;34369;51.174;6.738;2022-07-25T14:08:15;19.00;;;11.38;;
48588;SDS011;34369;51.174;6.738;2022-07-25T14:10:47;14.65;;;11.80;;
48588;SDS011;34369;51.174;6.738;2022-07-25T14:13:19;16.08;;;11.65;;
48588;SDS011;34369;51.174;6.738;2022-07-25T14:15:54;12.73;;;11.43;;
48588;SDS011;34369;51.174;6.738;2022-07-25T14:18:26;13.48;;;12.10;;
48588;SDS011;34369;51.174;6.738;2022-07-25T14:20:59;12.82;;;11.52;;
48588;SDS011;34369;51.174;6.738;2022-07-25T14:23:33;13.18;;;11.88;;
48588;SDS011;34369;51.174;6.738;2022-07-25T14:26:05;13.88;;;11.65;;
48588;SDS011;34369;51.174;6.738;2022-07-25T14:28:37;12.73;;;11.43;;
48588;SDS011;34369;51.174;6.738;2022-07-25T14:31:09;12.73;;;11.52;;
48588;SDS011;34369;51.174;6.738;2022-07-25T14:33:41;13.38;;;11.90;;
48588;SDS011;34369;51.174;6.738;2022-07-25T14:36:13;12.73;;;11.30;;
48588;SDS011;34369;51.174;6.738;2022-07-25T14:38:49;12.18;;;10.98;;
48588;SDS011;34369;51.174;6.738;2022-07-25T14:41:22;12.68;;;11.38;;
48588;SDS011;34369;51.174;6.738;2022-07-25T14:43:54;12.30;;;11.10;;
48588;SDS011;34369;51.174;6.738;2022-07-25T14:46:27;12.68;;;11.38;;
48588;SDS011;34369;51.174;6.738;2022-07-25T14:49:00;13.20;;;11.65;;
48588;SDS011;34369;51.174;6.738;2022-07-25T14:51:33;18.70;;;11.35;;
48588;SDS011;34369;51.174;6.738;2022-07-25T14:54:07;13.02;;;11.52;;
48588;SDS011;34369;51.174;6.738;2022-07-25T14:56:40;12.65;;;11.32;;
48588;SDS011;34369;51.174;6.738;2022-07-25T14:59:13;12.95;;;11.65;;
48588;SDS011;34369;51.174;6.738;2022-07-25T15:01:46;12.65;;;11.35;;
48588;SDS011;34369;51.174;6.738;2022-07-25T15:04:19;14.80;;;11.60;;
48588;SDS011;34369;51.174;6.738;2022-07-25T15:06:54;14.17;;;12.23;;